Time;durP1;ratioP1;P1;durP2;ratioP2;P2;SDS_P1;SDS_P2;PMS_P1;PMS_P2;Temp;Humidity;BMP_temperature;BMP_pressure;BME280_temperature;BME280_humidity;BME280_pressure;Samples;Min_cycle;Max_cycle;Signal;HPM_P1;HPM_P2
2021/12/07 00:00:52;;;;;;;3.10;1.90;;;;;;;6.84;62.79;92572.94;4943409;28;20042;-84
2021/12/07 00:03:18;;;;;;;9.98;4.93;;;;;;;6.61;63.52;92562.94;4942494;28;20018;-85
2021/12/07 00:05:44;;;;;;;15.32;7.00;;;;;;;6.48;63.95;92551.50;4941006;28;20035;-85
2021/12/07 00:08:09;;;;;;;5.38;3.55;;;;;;;5.48;64.03;92382.38;4959522;28;20034;-86
2021/12/07 00:10:37;;;;;;;8.63;4.60;;;;;;;5.89;64.25;92435.25;4946553;28;20594;-85
2021/12/07 00:13:03;;;;;;;4.05;1.95;;;;;;;6.57;64.39;92531.13;4951746;28;20573;-85
2021/12/07 00:15:30;;;;;;;6.38;2.92;;;;;;;6.36;65.06;92503.91;4958162;28;20051;-84
2021/12/07 00:17:57;;;;;;;1.88;1.48;;;;;;;6.83;64.87;92552.91;4942392;28;20030;-86
2021/12/07 00:20:24;;;;;;;1.17;1.08;;;;;;;6.69;65.21;92554.22;4954787;28;20038;-85
2021/12/07 00:22:55;;;;;;;1.33;1.10;;;;;;;6.88;64.52;92551.94;4957660;28;20098;-85
2021/12/07 00:25:21;;;;;;;1.73;1.10;;;;;;;6.70;64.28;92537.28;4952005;28;20169;-85
2021/12/07 00:27:46;;;;;;;2.13;1.30;;;;;;;6.66;64.26;92539.78;4952585;28;20034;-85
2021/12/07 00:30:13;;;;;;;1.77;1.40;;;;;;;6.78;64.31;92547.03;4957479;28;20033;-85
2021/12/07 00:32:44;;;;;;;1.95;1.52;;;;;;;6.17;64.13;92469.94;4945414;28;20038;-86
2021/12/07 00:37:48;;;;;;;1.10;1.10;;;;;;;6.23;64.70;92473.19;4967160;28;20042;-86
2021/12/07 00:40:17;;;;;;;2.05;0.95;;;;;;;6.86;64.27;92560.19;4940251;28;20238;-85
2021/12/07 00:42:43;;;;;;;0.80;0.80;;;;;;;6.19;63.96;92459.84;4949043;28;20069;-86
2021/12/07 00:45:10;;;;;;;0.93;0.90;;;;;;;6.18;63.57;92423.97;4944182;28;20023;-85
2021/12/07 00:47:35;;;;;;;0.77;0.77;;;;;;;4.97;62.47;92236.50;4961210;28;20026;-86
2021/12/07 00:50:03;;;;;;;0.60;0.60;;;;;;;5.71;62.78;92338.06;4956079;28;20034;-86
2021/12/07 00:52:28;;;;;;;0.73;0.70;;;;;;;6.74;63.72;92557.47;4943858;28;20035;-85
2021/12/07 00:54:54;;;;;;;0.82;0.70;;;;;;;6.89;63.33;92565.94;4957147;28;20594;-85
2021/12/07 00:57:20;;;;;;;0.70;0.70;;;;;;;6.69;63.71;92555.00;4958768;28;20053;-86
2021/12/07 00:59:46;;;;;;;0.70;0.70;;;;;;;6.70;63.28;92545.97;4946640;28;20480;-85
2021/12/07 01:02:12;;;;;;;0.70;0.70;;;;;;;5.70;63.60;92410.34;4959691;28;20109;-85
2021/12/07 01:04:38;;;;;;;0.70;0.70;;;;;;;6.10;63.54;92460.97;4960632;28;20129;-86
2021/12/07 01:07:06;;;;;;;0.70;0.70;;;;;;;6.39;63.19;92503.25;4959340;28;20422;-85
2021/12/07 01:25:58;;;;;;;1.80;1.25;;;;;;;5.37;68.22;92457.59;4963295;28;20133;-85
2021/12/07 01:31:23;;;;;;;1.42;1.33;;;;;;;4.72;69.28;92384.81;4958065;28;20042;-85
2021/12/07 01:59:47;;;;;;;1.02;1.00;;;;;;;6.54;66.22;92455.16;4963143;28;20460;-86
2021/12/07 02:02:16;;;;;;;2.15;1.05;;;;;;;6.64;65.16;92436.31;4941529;28;20047;-85
2021/12/07 02:04:42;;;;;;;1.05;1.05;;;;;;;6.50;64.81;92393.53;4961696;28;20042;-86
2021/12/07 02:07:09;;;;;;;1.30;1.00;;;;;;;7.22;64.59;92506.78;4957856;28;20081;-86
2021/12/07 02:09:37;;;;;;;1.58;1.40;;;;;;;6.56;63.72;92389.56;4962161;28;20423;-86
2021/12/07 02:12:06;;;;;;;1.70;1.60;;;;;;;6.61;63.80;92418.44;4958341;28;20022;-86
2021/12/07 02:14:33;;;;;;;1.60;1.50;;;;;;;6.99;64.55;92497.63;4964735;28;20515;-86
2021/12/07 02:17:03;;;;;;;1.10;1.00;;;;;;;5.66;63.79;92281.00;4942972;28;20050;-86
2021/12/07 02:19:30;;;;;;;1.98;1.02;;;;;;;6.16;64.06;92360.19;4946696;28;20040;-87
2021/12/07 02:21:57;;;;;;;1.08;1.00;;;;;;;5.82;63.50;92315.50;4959155;28;20058;-86
2021/12/07 02:24:24;;;;;;;1.98;1.15;;;;;;;5.98;63.72;92332.31;4959290;28;20033;-86
2021/12/07 02:26:50;;;;;;;1.20;1.10;;;;;;;7.03;63.69;92505.66;4945024;28;20027;-86
2021/12/07 02:29:16;;;;;;;1.23;1.10;;;;;;;6.51;63.37;92436.53;4959533;28;20039;-86
2021/12/07 02:31:42;;;;;;;2.40;1.15;;;;;;;6.77;63.50;92482.06;4961827;28;20043;-86
2021/12/07 02:34:07;;;;;;;1.00;1.00;;;;;;;6.83;63.71;92473.63;4959763;28;20044;-87
2021/12/07 02:36:35;;;;;;;1.35;1.23;;;;;;;6.85;63.49;92476.69;4942891;28;20073;-86
2021/12/07 02:39:02;;;;;;;1.20;1.10;;;;;;;6.85;62.47;92457.44;4963711;28;20030;-87
2021/12/07 02:41:27;;;;;;;1.50;1.20;;;;;;;6.92;62.24;92472.78;4943992;28;20039;-87
2021/12/07 02:43:53;;;;;;;2.58;2.05;;;;;;;6.69;61.72;92436.13;4961588;28;20042;-86
2021/12/07 02:46:18;;;;;;;3.40;1.30;;;;;;;6.89;61.80;92489.28;4963079;28;20031;-87
2021/12/07 02:48:44;;;;;;;2.50;1.58;;;;;;;6.74;61.22;92453.63;4956922;28;20530;-87
2021/12/07 02:51:11;;;;;;;2.17;1.98;;;;;;;5.76;60.99;92299.09;4960580;28;20124;-85
2021/12/07 02:53:37;;;;;;;2.20;1.15;;;;;;;6.83;61.29;92491.34;4941525;28;20093;-87
2021/12/07 02:56:05;;;;;;;1.92;1.30;;;;;;;6.69;61.76;92481.03;4951111;28;20118;-86
2021/12/07 02:58:31;;;;;;;2.33;1.50;;;;;;;6.67;60.88;92456.78;4948822;28;20054;-86
2021/12/07 03:01:04;;;;;;;1.98;1.52;;;;;;;6.80;61.02;92487.47;4956258;28;20042;-87
2021/12/07 03:03:34;;;;;;;8.00;1.55;;;;;;;6.69;60.67;92469.69;4945512;28;20576;-86
2021/12/07 03:06:18;;;;;;;1.23;0.90;;;;;;;6.78;59.84;92478.31;4960682;28;20045;-86
2021/12/07 03:28:08;;;;;;;0.95;0.95;;;;;;;5.72;61.02;92434.56;4960608;28;20122;-87
2021/12/07 03:30:34;;;;;;;0.98;0.90;;;;;;;6.13;61.02;92492.75;4945563;28;20049;-86
2021/12/07 03:33:00;;;;;;;1.08;1.00;;;;;;;5.70;61.12;92428.81;4951203;28;20392;-87
2021/12/07 03:35:26;;;;;;;1.35;1.00;;;;;;;4.69;60.89;92278.25;4960120;28;20130;-87
2021/12/07 03:37:57;;;;;;;1.00;0.90;;;;;;;5.77;60.39;92411.44;4961199;28;20542;-85
2021/12/07 03:40:22;;;;;;;0.70;0.70;;;;;;;5.12;59.73;92325.56;4961127;28;20612;-87
2021/12/07 03:42:48;;;;;;;1.00;1.00;;;;;;;5.97;59.94;92481.94;4950087;28;20566;-85
2021/12/07 03:45:14;;;;;;;0.82;0.82;;;;;;;4.82;60.13;92313.38;4958106;28;20105;-86
2021/12/07 03:47:39;;;;;;;0.95;0.95;;;;;;;5.81;59.75;92483.56;4940925;28;20022;-87
2021/12/07 03:50:11;;;;;;;0.80;0.80;;;;;;;5.58;60.53;92476.94;4965159;28;20093;-86
2021/12/07 03:52:37;;;;;;;0.80;0.80;;;;;;;5.58;61.15;92479.56;4957338;28;20097;-86
2021/12/07 03:55:11;;;;;;;1.10;0.82;;;;;;;4.47;61.04;92306.63;4963740;28;20038;-86
2021/12/07 03:57:36;;;;;;;0.85;0.85;;;;;;;4.04;61.15;92260.03;4952055;28;20046;-86
2021/12/07 04:00:07;;;;;;;0.90;0.90;;;;;;;4.92;61.75;92407.91;4962302;28;20038;-86
2021/12/07 04:02:37;;;;;;;0.90;0.90;;;;;;;5.39;61.57;92465.97;4959412;28;20518;-86
2021/12/07 04:05:08;;;;;;;0.98;0.98;;;;;;;5.50;61.62;92483.00;4944904;28;20089;-85
2021/12/07 04:07:34;;;;;;;1.42;1.00;;;;;;;5.09;61.90;92442.13;4955260;28;20807;-85
2021/12/07 04:09:59;;;;;;;1.95;0.98;;;;;;;5.54;61.67;92483.94;4959264;28;20042;-86
2021/12/07 04:12:25;;;;;;;0.82;0.82;;;;;;;5.56;61.12;92482.53;4959045;28;20014;-85
2021/12/07 04:14:50;;;;;;;1.10;0.98;;;;;;;4.58;61.01;92328.91;4961890;28;20026;-85
2021/12/07 04:17:18;;;;;;;1.10;1.00;;;;;;;5.55;61.01;92461.75;4962718;28;20062;-85
2021/12/07 04:19:43;;;;;;;1.08;1.00;;;;;;;5.85;60.22;92487.13;4944567;28;20715;-85
2021/12/07 04:22:08;;;;;;;1.35;1.17;;;;;;;5.49;59.74;92449.81;4944310;28;20043;-86
2021/12/07 04:24:34;;;;;;;2.05;1.38;;;;;;;5.53;60.31;92469.97;4942552;28;20042;-85
2021/12/07 04:26:59;;;;;;;1.13;1.00;;;;;;;3.97;60.13;92262.31;4946666;28;20034;-86
2021/12/07 04:29:25;;;;;;;1.13;1.02;;;;;;;3.45;59.58;92150.34;4962139;28;20046;-84
2021/12/07 04:31:50;;;;;;;0.80;0.80;;;;;;;5.13;59.93;92464.16;4958890;28;20039;-86
2021/12/07 04:34:16;;;;;;;1.08;1.08;;;;;;;5.20;59.38;92426.00;4962812;28;20130;-86
2021/12/07 04:36:41;;;;;;;0.93;0.93;;;;;;;4.47;59.05;92325.81;4955201;28;20027;-86
2021/12/07 04:39:08;;;;;;;0.90;0.90;;;;;;;4.50;58.47;92325.19;4941576;28;20019;-86
2021/12/07 04:41:34;;;;;;;4.53;2.35;;;;;;;5.42;58.12;92487.22;4958626;28;20065;-85
2021/12/07 04:44:02;;;;;;;8.85;4.05;;;;;;;5.33;58.46;92483.81;4958133;28;20523;-85
2021/12/07 04:46:45;;;;;;;5.13;2.80;;;;;;;5.04;58.45;92442.28;4941080;28;20042;-86
2021/12/07 04:57:42;;;;;;;1.10;1.02;;;;;;;4.67;59.59;92487.69;4957459;28;20049;-85
2021/12/07 05:00:28;;;;;;;1.05;1.00;;;;;;;4.40;60.13;92464.25;4933802;28;20019;-84
2021/12/07 05:02:58;;;;;;;1.10;1.00;;;;;;;4.42;60.66;92491.03;4942472;28;20023;-84
2021/12/07 05:05:30;;;;;;;1.40;1.30;;;;;;;3.26;60.55;92303.00;4957863;28;20045;-85
2021/12/07 05:07:58;;;;;;;1.10;1.08;;;;;;;4.44;60.25;92488.88;4955158;28;20577;-85
2021/12/07 05:18:34;;;;;;;0.90;0.90;;;;;;;3.59;60.86;92424.34;4964171;28;20030;-86
2021/12/07 05:34:42;;;;;;;1.25;1.13;;;;;;;3.56;62.16;92474.91;4966552;28;20053;-84
2021/12/07 05:39:59;;;;;;;1.30;1.20;;;;;;;3.40;62.43;92459.50;4956632;28;20054;-86
2021/12/07 05:42:25;;;;;;;0.90;0.90;;;;;;;3.09;63.23;92429.78;4962494;28;20639;-85
2021/12/07 05:44:52;;;;;;;2.38;1.20;;;;;;;2.60;63.13;92366.94;4944622;28;20030;-86
2021/12/07 05:47:18;;;;;;;1.83;1.25;;;;;;;2.32;62.86;92284.91;4962088;28;20049;-85
2021/12/07 05:49:45;;;;;;;2.78;1.70;;;;;;;3.04;62.98;92406.28;4963721;28;20038;-85
2021/12/07 05:52:11;;;;;;;3.00;1.70;;;;;;;2.61;62.97;92340.38;4961925;28;20042;-86
2021/12/07 05:54:36;;;;;;;2.38;2.00;;;;;;;2.12;62.87;92264.41;4967524;28;20573;-86
2021/12/07 05:57:03;;;;;;;4.47;2.35;;;;;;;3.53;63.29;92475.47;4937278;28;20590;-86
2021/12/07 05:59:28;;;;;;;1.90;1.75;;;;;;;3.32;63.03;92447.09;4961907;28;20045;-85
2021/12/07 06:01:53;;;;;;;1.55;1.45;;;;;;;3.70;62.42;92479.00;4959209;28;20042;-86
2021/12/07 06:04:19;;;;;;;1.52;1.42;;;;;;;2.51;62.18;92301.25;4964113;28;20043;-86
2021/12/07 06:06:44;;;;;;;1.52;1.42;;;;;;;3.65;62.42;92468.59;4947301;28;20570;-85
2021/12/07 06:09:10;;;;;;;1.20;1.10;;;;;;;2.38;62.11;92288.97;4969010;28;20130;-85
2021/12/07 06:11:35;;;;;;;1.75;1.27;;;;;;;3.21;63.19;92445.00;4961299;28;20045;-85
2021/12/07 06:14:01;;;;;;;1.65;1.17;;;;;;;3.16;62.83;92422.28;4956537;28;20087;-84
2021/12/07 06:16:30;;;;;;;1.60;1.10;;;;;;;3.54;62.60;92488.34;4940153;28;20582;-86
2021/12/07 06:18:55;;;;;;;0.90;0.90;;;;;;;2.47;62.56;92329.16;4949757;28;20158;-85
2021/12/07 06:21:21;;;;;;;0.90;0.90;;;;;;;3.05;62.51;92434.09;4955548;28;20034;-85
2021/12/07 06:23:47;;;;;;;1.20;1.10;;;;;;;3.26;62.91;92456.19;4946859;28;20026;-84
2021/12/07 06:26:12;;;;;;;1.10;1.00;;;;;;;3.19;63.29;92482.09;4941691;28;21345;-85
2021/12/07 06:28:38;;;;;;;1.08;1.08;;;;;;;2.67;63.20;92359.41;4960461;28;20519;-86
2021/12/07 06:31:04;;;;;;;1.02;1.02;;;;;;;3.04;63.20;92437.03;4961022;28;20518;-84
2021/12/07 06:33:30;;;;;;;1.48;1.35;;;;;;;3.29;63.36;92466.06;4966059;28;20193;-86
2021/12/07 06:35:58;;;;;;;1.42;1.20;;;;;;;3.39;63.14;92465.84;4948274;28;20097;-86
2021/12/07 06:38:26;;;;;;;1.38;1.20;;;;;;;3.43;62.35;92465.25;4958373;28;20046;-84
2021/12/07 06:40:52;;;;;;;1.27;1.17;;;;;;;2.30;62.15;92287.06;4961941;28;20035;-85
2021/12/07 06:43:17;;;;;;;7.90;4.05;;;;;;;3.18;62.25;92446.41;4952874;28;20100;-86
2021/12/07 06:45:43;;;;;;;4.47;2.53;;;;;;;2.29;63.26;92370.25;4959497;28;20089;-85
2021/12/07 06:48:08;;;;;;;1.20;1.17;;;;;;;2.32;63.64;92353.13;4945193;28;20018;-85
2021/12/07 06:50:35;;;;;;;1.23;1.13;;;;;;;2.90;63.96;92471.22;4940596;28;20027;-85
2021/12/07 06:53:00;;;;;;;1.67;1.58;;;;;;;2.67;64.52;92475.66;4958406;28;20100;-85
2021/12/07 06:55:26;;;;;;;1.15;1.10;;;;;;;2.59;65.51;92462.47;4960274;28;20170;-85
2021/12/07 06:57:52;;;;;;;1.73;1.27;;;;;;;2.22;65.48;92422.31;4961693;28;20050;-85
2021/12/07 07:00:19;;;;;;;1.90;1.75;;;;;;;2.79;65.53;92488.28;4956303;28;20948;-85
2021/12/07 07:02:44;;;;;;;1.20;1.20;;;;;;;2.27;65.72;92406.47;4963111;28;20053;-85
2021/12/07 07:05:10;;;;;;;1.27;1.20;;;;;;;2.69;65.31;92436.78;4964203;28;20472;-84
2021/12/07 07:07:37;;;;;;;1.48;1.38;;;;;;;1.91;65.04;92319.16;4939470;28;20050;-84
2021/12/07 07:10:04;;;;;;;1.55;1.27;;;;;;;2.93;64.75;92481.91;4960047;28;20130;-84
2021/12/07 07:12:33;;;;;;;3.40;2.50;;;;;;;2.69;64.88;92449.13;4955919;28;20040;-84
2021/12/07 07:14:59;;;;;;;1.13;1.13;;;;;;;2.60;64.45;92427.28;4961128;28;20025;-85
2021/12/07 07:17:24;;;;;;;2.03;1.73;;;;;;;2.97;64.09;92484.72;4957608;28;20975;-85
2021/12/07 07:19:50;;;;;;;1.85;1.63;;;;;;;2.47;64.67;92413.91;4962433;28;20054;-86
2021/12/07 07:22:15;;;;;;;1.30;1.20;;;;;;;1.80;63.68;92299.44;4960978;28;20050;-85
2021/12/07 07:24:42;;;;;;;1.65;1.33;;;;;;;2.76;63.93;92467.84;4957519;28;20129;-86
2021/12/07 07:27:08;;;;;;;1.30;1.17;;;;;;;2.81;64.51;92491.38;4948408;28;20026;-85
2021/12/07 07:29:34;;;;;;;1.20;1.20;;;;;;;2.64;64.41;92486.00;4955698;28;20037;-88
2021/12/07 07:32:00;;;;;;;1.20;1.10;;;;;;;2.38;65.83;92483.13;4957446;28;20031;-84
2021/12/07 07:34:26;;;;;;;1.98;1.25;;;;;;;2.62;65.86;92488.13;4943012;28;20491;-85
2021/12/07 07:36:52;;;;;;;1.30;1.20;;;;;;;2.52;65.84;92468.91;4939613;28;20125;-84
2021/12/07 07:39:17;;;;;;;1.70;1.50;;;;;;;1.53;65.32;92303.66;4942524;28;20031;-86
2021/12/07 07:41:43;;;;;;;2.08;1.70;;;;;;;1.95;65.38;92359.44;4956377;28;20416;-85
2021/12/07 07:44:08;;;;;;;2.28;1.40;;;;;;;2.84;65.55;92488.19;4960597;28;21128;-86
2021/12/07 07:46:34;;;;;;;1.77;1.65;;;;;;;2.21;65.24;92396.38;4957814;28;20050;-85
2021/12/07 07:49:00;;;;;;;1.60;1.50;;;;;;;1.48;65.32;92288.03;4939934;28;20042;-86
2021/12/07 07:51:26;;;;;;;1.55;1.45;;;;;;;1.93;65.33;92361.56;4953875;28;20027;-84
2021/12/07 07:53:54;;;;;;;2.00;1.40;;;;;;;2.47;66.24;92471.63;4945621;28;20034;-84
2021/12/07 07:56:20;;;;;;;1.48;1.42;;;;;;;2.45;65.66;92458.03;4961754;28;20034;-85
2021/12/07 07:58:46;;;;;;;2.63;2.20;;;;;;;2.16;65.80;92402.50;4946468;28;20645;-86
2021/12/07 08:01:11;;;;;;;2.15;1.83;;;;;;;1.44;65.89;92308.03;4955063;28;20042;-84
2021/12/07 08:03:37;;;;;;;4.82;2.80;;;;;;;2.45;66.88;92463.25;4944369;28;20082;-86
2021/12/07 08:06:02;;;;;;;5.15;2.70;;;;;;;2.22;66.30;92421.53;4961941;28;20026;-86
2021/12/07 08:08:29;;;;;;;3.70;2.95;;;;;;;1.63;66.40;92332.25;4962715;28;20047;-85
2021/12/07 08:10:54;;;;;;;3.05;2.47;;;;;;;2.61;66.40;92483.94;4941894;28;20038;-85
2021/12/07 08:13:20;;;;;;;2.83;2.63;;;;;;;2.40;65.98;92452.88;4961661;28;20530;-85
2021/12/07 08:15:48;;;;;;;2.60;2.35;;;;;;;2.56;66.03;92489.28;4942801;28;20041;-86
2021/12/07 08:18:15;;;;;;;5.75;2.47;;;;;;;2.10;66.07;92422.06;4959941;28;20535;-87
2021/12/07 08:20:42;;;;;;;4.22;3.25;;;;;;;2.30;66.69;92461.00;4960676;28;20027;-84
2021/12/07 08:23:09;;;;;;;5.43;3.10;;;;;;;1.16;66.93;92296.03;4955335;28;20065;-85
2021/12/07 08:25:37;;;;;;;3.60;2.45;;;;;;;1.36;66.19;92345.41;4956100;28;20416;-85
2021/12/07 08:28:11;;;;;;;2.67;1.88;;;;;;;2.03;67.08;92490.63;4962613;28;20035;-86
2021/12/07 08:30:38;;;;;;;2.08;1.92;;;;;;;1.96;68.39;92502.59;4940347;28;20046;-84
2021/12/07 08:33:04;;;;;;;2.55;2.35;;;;;;;1.86;68.65;92466.81;4962112;28;20077;-84
2021/12/07 08:35:31;;;;;;;2.33;2.08;;;;;;;2.11;68.36;92481.28;4942448;28;20130;-85
2021/12/07 08:37:56;;;;;;;2.13;1.80;;;;;;;2.07;67.96;92483.72;4949213;28;20420;-86
2021/12/07 08:40:25;;;;;;;1.50;1.40;;;;;;;1.92;68.12;92476.16;4941212;28;20050;-84
2021/12/07 08:42:51;;;;;;;2.70;1.98;;;;;;;1.88;68.64;92495.38;4961242;28;20058;-85
2021/12/07 08:45:18;;;;;;;2.15;1.58;;;;;;;1.12;69.05;92381.47;4959260;28;20194;-84
2021/12/07 08:47:46;;;;;;;1.98;1.88;;;;;;;1.96;69.07;92518.31;4962794;28;20751;-85
2021/12/07 08:50:15;;;;;;;6.13;2.75;;;;;;;1.61;68.91;92434.00;4951613;28;20401;-85
2021/12/07 08:52:41;;;;;;;8.13;5.20;;;;;;;2.16;68.61;92510.03;4939388;28;20089;-85
2021/12/07 09:00:33;;;;;;;6.25;3.00;;;;;;;2.14;67.36;92493.06;4959468;28;20049;-85
2021/12/07 09:02:59;;;;;;;3.13;2.83;;;;;;;1.22;67.29;92336.75;4947744;28;20495;-86
2021/12/07 09:05:25;;;;;;;2.70;2.13;;;;;;;1.41;66.81;92384.59;4961187;28;20034;-84
2021/12/07 09:07:51;;;;;;;2.28;2.17;;;;;;;2.05;66.90;92472.78;4964000;28;20399;-85
2021/12/07 09:10:17;;;;;;;3.20;2.63;;;;;;;2.39;66.88;92519.56;4943137;28;20083;-84
2021/12/07 09:12:44;;;;;;;2.55;2.25;;;;;;;1.61;66.25;92386.84;4957580;28;20495;-85
2021/12/07 09:15:10;;;;;;;3.78;2.78;;;;;;;0.80;65.83;92254.81;4962174;28;20026;-85
2021/12/07 09:17:35;;;;;;;2.80;2.60;;;;;;;2.27;66.43;92519.28;4957433;28;20561;-85
2021/12/07 09:20:05;;;;;;;2.13;1.90;;;;;;;2.31;66.71;92524.69;4960331;28;20041;-84
2021/12/07 09:22:31;;;;;;;2.13;1.70;;;;;;;2.05;67.01;92524.44;4955647;28;20046;-84
2021/12/07 09:24:56;;;;;;;1.58;1.48;;;;;;;2.08;67.42;92526.47;4945755;28;20046;-85
2021/12/07 09:27:22;;;;;;;1.98;1.77;;;;;;;2.08;67.38;92514.13;4944928;28;20534;-84
2021/12/07 09:29:48;;;;;;;2.28;1.95;;;;;;;-0.24;67.48;92160.38;4963226;28;20062;-84
2021/12/07 09:32:13;;;;;;;1.73;1.58;;;;;;;1.32;67.42;92422.22;4959358;28;20519;-84
2021/12/07 09:34:39;;;;;;;1.42;1.33;;;;;;;0.78;67.53;92335.44;4940866;28;20141;-84
2021/12/07 09:37:04;;;;;;;3.25;2.10;;;;;;;0.49;67.52;92282.59;4962784;28;20068;-85
2021/12/07 09:39:29;;;;;;;2.45;2.22;;;;;;;1.52;68.47;92472.41;4945249;28;20117;-85
2021/12/07 09:41:55;;;;;;;2.25;2.08;;;;;;;1.17;69.11;92436.38;4966062;28;20019;-85
2021/12/07 09:44:22;;;;;;;2.70;2.33;;;;;;;1.76;69.45;92493.22;4963553;28;20097;-85
2021/12/07 09:46:48;;;;;;;3.28;2.20;;;;;;;1.04;69.37;92403.03;4946232;28;20570;-84
2021/12/07 09:49:14;;;;;;;2.55;2.35;;;;;;;1.53;69.75;92463.47;4962369;28;21240;-84
2021/12/07 09:51:39;;;;;;;4.15;2.50;;;;;;;1.61;69.11;92460.19;4946114;28;20412;-85
2021/12/07 09:54:08;;;;;;;8.65;2.97;;;;;;;-0.05;69.26;92211.84;4957560;28;20113;-85
2021/12/07 09:56:34;;;;;;;2.92;2.63;;;;;;;1.89;69.28;92510.03;4961819;28;20450;-85
2021/12/07 09:58:59;;;;;;;2.15;1.95;;;;;;;1.64;69.34;92470.09;4959500;28;20038;-85
2021/12/07 10:01:27;;;;;;;2.40;2.20;;;;;;;1.86;68.92;92487.78;4963409;28;20054;-84
2021/12/07 10:03:53;;;;;;;4.35;2.67;;;;;;;1.80;69.40;92482.94;4962714;28;20062;-85
2021/12/07 10:06:20;;;;;;;2.67;2.47;;;;;;;0.95;68.98;92341.94;4959244;28;20050;-84
2021/12/07 10:08:46;;;;;;;2.58;2.38;;;;;;;1.84;69.01;92491.75;4960527;28;20133;-85
2021/12/07 10:11:12;;;;;;;2.45;2.25;;;;;;;2.14;68.19;92501.69;4957564;28;20074;-85
2021/12/07 10:13:40;;;;;;;7.80;2.38;;;;;;;2.25;67.90;92510.94;4960324;28;20705;-84
2021/12/07 10:16:08;;;;;;;2.65;2.30;;;;;;;2.35;67.16;92496.84;4960395;28;20054;-85
2021/12/07 10:18:36;;;;;;;1.92;1.70;;;;;;;2.29;67.19;92495.38;4959337;28;20053;-85
2021/12/07 10:21:24;;;;;;;1.58;1.48;;;;;;;2.19;66.78;92485.88;4956518;28;20039;-85
2021/12/07 10:23:54;;;;;;;2.95;1.90;;;;;;;1.60;66.97;92416.72;4936973;28;20047;-87
2021/12/07 10:26:34;;;;;;;2.30;2.10;;;;;;;1.93;67.82;92487.41;4955670;28;20106;-85
2021/12/07 10:29:12;;;;;;;3.10;2.80;;;;;;;1.90;68.13;92475.69;4925629;28;20150;-84
2021/12/07 10:31:41;;;;;;;2.55;2.35;;;;;;;1.76;68.46;92461.00;4954666;28;20034;-85
2021/12/07 10:34:19;;;;;;;2.45;2.00;;;;;;;1.43;68.98;92410.47;4960038;28;20046;-84
2021/12/07 10:36:51;;;;;;;4.55;2.80;;;;;;;1.06;68.60;92362.44;4956407;28;20089;-87
2021/12/07 10:39:25;;;;;;;4.22;2.67;;;;;;;1.96;68.80;92482.34;4946467;28;20600;-86
2021/12/07 10:41:56;;;;;;;5.88;3.40;;;;;;;2.03;68.46;92482.75;4960394;28;20065;-86
2021/12/07 10:44:24;;;;;;;3.15;2.85;;;;;;;1.76;67.76;92480.13;4944275;28;20043;-86
2021/12/07 10:46:58;;;;;;;3.25;2.65;;;;;;;1.38;68.01;92426.28;4940220;28;20027;-86
2021/12/07 10:49:36;;;;;;;2.00;1.90;;;;;;;1.72;67.98;92480.97;4960768;28;20053;-84
2021/12/07 10:52:19;;;;;;;2.72;2.22;;;;;;;1.72;68.32;92489.59;4944158;28;20050;-86
2021/12/07 10:55:05;;;;;;;1.77;1.65;;;;;;;1.70;68.72;92483.09;4944207;28;20088;-86
2021/12/07 10:57:34;;;;;;;2.42;1.88;;;;;;;0.58;68.48;92301.78;4950132;28;20042;-87
2021/12/07 11:00:20;;;;;;;3.10;2.15;;;;;;;1.66;68.04;92461.94;4962782;28;20049;-86
2021/12/07 11:03:00;;;;;;;2.70;1.77;;;;;;;1.31;67.69;92387.41;4937196;28;20051;-85
2021/12/07 11:05:29;;;;;;;3.28;2.72;;;;;;;1.36;68.34;92407.47;4960981;28;20042;-86
2021/12/07 11:07:56;;;;;;;2.17;1.92;;;;;;;0.31;69.50;92283.38;4959012;28;20030;-85
2021/12/07 11:10:29;;;;;;;2.83;2.17;;;;;;;1.33;68.91;92414.06;4942385;28;20043;-86
2021/12/07 11:15:33;;;;;;;3.17;2.35;;;;;;;1.48;69.14;92418.25;4956880;28;20520;-86
2021/12/07 11:18:02;;;;;;;4.53;2.97;;;;;;;1.77;69.11;92452.81;4937622;28;20033;-86
2021/12/07 11:20:30;;;;;;;3.55;3.13;;;;;;;1.69;69.39;92445.63;4959793;28;20134;-86
2021/12/07 11:23:19;;;;;;;5.28;3.08;;;;;;;1.77;69.19;92457.28;4960287;28;20415;-84
2021/12/07 11:31:22;;;;;;;2.85;2.00;;;;;;;1.59;68.37;92461.53;4957527;28;20134;-85
2021/12/07 11:33:51;;;;;;;2.47;2.13;;;;;;;0.94;68.09;92350.88;4947011;28;20043;-86
2021/12/07 11:36:29;;;;;;;1.80;1.70;;;;;;;1.35;67.27;92443.38;4938725;28;20031;-86
2021/12/07 11:38:57;;;;;;;2.28;2.08;;;;;;;1.48;66.86;92466.19;4939953;28;20034;-85
2021/12/07 11:41:27;;;;;;;2.05;1.95;;;;;;;1.39;66.36;92446.19;4929475;28;20038;-86
2021/12/07 11:44:05;;;;;;;1.30;1.20;;;;;;;0.33;66.19;92315.28;4940825;28;20040;-86
2021/12/07 11:46:33;;;;;;;2.60;2.40;;;;;;;0.64;66.71;92363.41;4938675;28;20042;-86
2021/12/07 11:49:21;;;;;;;2.40;2.20;;;;;;;0.63;67.73;92372.34;4934745;28;20031;-85
2021/12/07 11:51:50;;;;;;;1.73;1.63;;;;;;;0.98;66.95;92449.50;4927543;28;20046;-85
2021/12/07 11:54:18;;;;;;;1.50;1.40;;;;;;;1.11;66.71;92474.16;4936244;28;20023;-85
2021/12/07 11:56:44;;;;;;;1.30;1.30;;;;;;;0.94;67.67;92426.78;4939919;28;20402;-85
2021/12/07 11:59:11;;;;;;;1.70;1.42;;;;;;;1.13;68.47;92451.09;4940236;28;20047;-85
2021/12/07 12:01:37;;;;;;;3.58;1.30;;;;;;;-0.50;66.98;92227.16;4936666;28;20046;-85
2021/12/07 12:04:03;;;;;;;1.40;1.30;;;;;;;0.47;67.98;92399.78;4942661;28;20098;-85
2021/12/07 12:06:30;;;;;;;1.25;1.25;;;;;;;0.72;68.63;92430.00;4950759;28;20051;-84
2021/12/07 12:08:57;;;;;;;3.80;2.22;;;;;;;0.58;68.53;92401.19;4933648;28;20031;-85
2021/12/07 12:11:39;;;;;;;1.60;1.50;;;;;;;0.67;68.90;92417.00;4926602;28;20035;-86
2021/12/07 12:14:35;;;;;;;2.00;1.80;;;;;;;0.93;68.61;92460.06;4938437;28;20427;-84
2021/12/07 12:17:04;;;;;;;;;;;;;;;0.69;68.97;92454.91;4935415;28;20138;-86
2021/12/07 12:20:06;;;;;;;3.50;2.00;;;;;;;0.70;70.03;92456.47;4930958;28;19923;-85
2021/12/07 12:22:44;;;;;;;2.03;1.67;;;;;;;0.67;68.67;92461.50;4955977;28;20435;-86
2021/12/07 12:25:13;;;;;;;2.58;1.80;;;;;;;0.43;69.32;92426.78;4944240;28;20053;-85
2021/12/07 12:27:39;;;;;;;2.40;1.92;;;;;;;0.62;69.12;92430.16;4944484;28;20460;-84
2021/12/07 12:30:17;;;;;;;3.50;1.88;;;;;;;0.09;69.14;92351.19;4944574;28;20472;-84
2021/12/07 12:32:45;;;;;;;2.13;1.83;;;;;;;0.73;69.59;92442.03;4937778;28;20537;-85
2021/12/07 12:35:13;;;;;;;1.23;1.23;;;;;;;0.73;69.73;92442.81;4961368;28;20699;-85
2021/12/07 12:37:49;;;;;;;2.42;2.22;;;;;;;-0.79;69.60;92195.19;4952919;28;20391;-83
2021/12/07 12:40:26;;;;;;;1.77;1.40;;;;;;;-1.50;68.78;92089.13;4951720;28;20043;-84
2021/12/07 12:42:54;;;;;;;1.63;1.48;;;;;;;0.94;68.96;92445.09;4935350;28;20058;-83
2021/12/07 12:45:23;;;;;;;1.77;1.42;;;;;;;0.18;68.54;92320.72;4932295;28;20127;-83
2021/12/07 12:48:03;;;;;;;1.80;1.70;;;;;;;1.00;68.43;92463.06;4955459;28;20027;-83
2021/12/07 12:50:30;;;;;;;2.92;2.20;;;;;;;1.05;68.14;92462.22;4937555;28;20046;-83
2021/12/07 12:53:12;;;;;;;3.55;1.63;;;;;;;0.92;67.83;92455.09;4961054;28;20433;-84
2021/12/07 12:55:40;;;;;;;1.55;1.45;;;;;;;0.79;68.53;92454.75;4936784;28;20300;-84
2021/12/07 12:58:10;;;;;;;1.83;1.65;;;;;;;0.38;68.31;92398.88;4956320;28;20077;-82
2021/12/07 13:01:03;;;;;;;2.70;1.73;;;;;;;0.96;68.40;92463.94;4958575;28;20080;-83
2021/12/07 13:03:54;;;;;;;1.73;1.63;;;;;;;0.87;67.19;92461.19;4939499;28;20557;-83
2021/12/07 13:06:31;;;;;;;2.22;1.80;;;;;;;0.85;68.92;92467.75;4956852;28;20027;-84
2021/12/07 13:09:11;;;;;;;2.00;1.80;;;;;;;0.70;68.42;92439.97;4952018;28;20037;-83
2021/12/07 13:11:38;;;;;;;3.15;1.77;;;;;;;0.69;68.24;92436.56;4958038;28;20061;-83
2021/12/07 13:14:06;;;;;;;2.05;1.75;;;;;;;1.03;68.47;92477.44;4953405;28;20039;-84
2021/12/07 13:16:34;;;;;;;3.00;2.15;;;;;;;0.67;67.29;92415.19;4941659;28;20483;-83
2021/12/07 13:19:07;;;;;;;2.15;1.95;;;;;;;0.39;66.65;92389.19;4959358;28;20130;-85
2021/12/07 13:21:42;;;;;;;2.38;2.13;;;;;;;-0.65;67.05;92217.69;4943436;28;20563;-84
2021/12/07 13:24:15;;;;;;;2.15;1.80;;;;;;;0.46;66.38;92392.22;4946095;28;20027;-83
2021/12/07 13:26:45;;;;;;;3.85;2.38;;;;;;;0.80;66.29;92440.59;4941174;28;20481;-83
2021/12/07 13:29:18;;;;;;;2.97;2.42;;;;;;;0.87;66.15;92482.13;4939561;28;20374;-83
2021/12/07 13:31:47;;;;;;;3.63;2.28;;;;;;;-0.62;66.54;92294.66;4938924;28;20426;-83
2021/12/07 13:34:18;;;;;;;2.40;2.03;;;;;;;0.39;67.10;92455.34;4943588;28;21026;-84
2021/12/07 13:37:03;;;;;;;1.98;1.80;;;;;;;0.54;67.01;92488.38;4961695;28;20578;-83
2021/12/07 13:39:36;;;;;;;2.13;2.03;;;;;;;0.16;68.06;92487.53;4964084;28;20039;-83
2021/12/07 13:42:07;;;;;;;2.65;2.00;;;;;;;0.05;68.47;92491.34;4963015;28;20054;-83